createdAt,value
2022-12-08T00:01:12.983Z,15.18
2022-12-08T00:03:39.998Z,16.27
2022-12-08T00:06:26.397Z,15.55
2022-12-08T00:09:11.011Z,17.52
2022-12-08T00:11:37.484Z,17.23
2022-12-08T00:14:03.961Z,15.82
2022-12-08T00:16:30.471Z,14.57
2022-12-08T00:18:56.990Z,14.40
2022-12-08T00:21:23.530Z,14.80
2022-12-08T00:23:49.998Z,15.13
2022-12-08T00:26:16.544Z,15.85
2022-12-08T00:28:43.389Z,15.55
2022-12-08T00:31:11.621Z,14.82
2022-12-08T00:33:38.302Z,13.95
2022-12-08T00:36:08.663Z,12.18
2022-12-08T00:38:36.270Z,13.15
2022-12-08T00:41:04.079Z,14.43
2022-12-08T00:43:30.535Z,12.68
2022-12-08T00:45:57.071Z,13.52
2022-12-08T00:48:23.634Z,12.70
2022-12-08T00:50:50.104Z,13.13
2022-12-08T00:53:16.562Z,13.20
2022-12-08T00:55:43.436Z,14.05
2022-12-08T00:58:09.890Z,12.93
2022-12-08T01:00:36.336Z,13.15
2022-12-08T01:03:03.024Z,13.68
2022-12-08T01:05:29.554Z,11.80
2022-12-08T01:07:56.019Z,11.57
2022-12-08T01:10:22.748Z,12.25
2022-12-08T01:12:49.197Z,11.80
2022-12-08T01:15:15.640Z,11.65
2022-12-08T01:17:42.102Z,11.25
2022-12-08T01:20:08.988Z,11.38
2022-12-08T01:22:36.131Z,12.50
2022-12-08T01:25:02.942Z,9.85
2022-12-08T01:27:29.420Z,10.27
2022-12-08T01:29:56.230Z,10.45
2022-12-08T01:32:22.691Z,11.40
2022-12-08T01:34:49.157Z,9.25
2022-12-08T01:37:15.650Z,10.32
2022-12-08T01:39:42.211Z,10.73
2022-12-08T01:42:21.277Z,10.63
2022-12-08T01:44:55.691Z,10.68
2022-12-08T01:47:26.189Z,10.55
2022-12-08T01:49:52.720Z,10.57
2022-12-08T01:52:54.004Z,10.38
2022-12-08T01:55:26.348Z,9.95
2022-12-08T01:57:57.618Z,9.45
2022-12-08T02:00:24.191Z,10.13
2022-12-08T02:02:57.101Z,9.98
2022-12-08T02:05:27.732Z,8.63
2022-12-08T02:07:56.085Z,9.75
2022-12-08T02:10:24.460Z,9.00
2022-12-08T02:12:53.116Z,8.68
2022-12-08T02:15:22.932Z,8.80
2022-12-08T02:17:49.429Z,8.88
2022-12-08T02:20:33.387Z,8.95
2022-12-08T02:23:15.190Z,8.63
2022-12-08T02:26:22.255Z,8.77
2022-12-08T02:29:10.206Z,8.20
2022-12-08T02:31:48.945Z,6.85
2022-12-08T02:34:24.925Z,8.18
2022-12-08T02:37:09.720Z,7.35
2022-12-08T02:39:47.428Z,8.18
2022-12-08T02:42:33.399Z,7.90
2022-12-08T02:45:12.324Z,7.32
2022-12-08T02:47:39.147Z,7.45
2022-12-08T02:50:06.992Z,7.88
2022-12-08T02:52:33.410Z,6.82
2022-12-08T02:55:05.222Z,6.47
2022-12-08T02:57:50.569Z,7.20
2022-12-08T03:00:20.123Z,6.45
2022-12-08T03:03:01.613Z,6.70
2022-12-08T03:06:06.764Z,6.70
2022-12-08T03:08:42.182Z,7.50
2022-12-08T03:11:21.792Z,5.43
2022-12-08T03:13:58.948Z,7.18
2022-12-08T03:16:27.721Z,6.22
2022-12-08T03:19:39.505Z,6.45
2022-12-08T03:22:07.333Z,6.05
2022-12-08T03:24:39.362Z,7.47
2022-12-08T03:27:10.003Z,6.72
2022-12-08T03:29:36.601Z,6.47
2022-12-08T03:32:47.580Z,6.10
2022-12-08T03:35:23.393Z,5.65
2022-12-08T03:37:50.344Z,5.78
2022-12-08T03:40:19.331Z,6.85
2022-12-08T03:42:46.080Z,6.10
2022-12-08T03:45:12.517Z,4.80
2022-12-08T03:47:38.932Z,5.70
2022-12-08T03:50:06.376Z,5.25
2022-12-08T03:52:33.107Z,6.50
2022-12-08T03:54:59.579Z,5.43
2022-12-08T03:57:26.118Z,5.43
2022-12-08T03:59:52.566Z,5.32
2022-12-08T04:02:19.235Z,6.45
2022-12-08T04:04:45.842Z,5.05
2022-12-08T04:07:12.318Z,4.90
2022-12-08T04:09:39.019Z,4.65
2022-12-08T04:12:05.682Z,4.25
2022-12-08T04:14:32.158Z,5.10
2022-12-08T04:16:58.674Z,5.25
2022-12-08T04:19:25.199Z,4.30
2022-12-08T04:21:51.715Z,5.50
2022-12-08T04:24:18.244Z,4.95
2022-12-08T04:26:44.797Z,4.50
2022-12-08T04:29:11.278Z,4.97
2022-12-08T04:31:37.914Z,4.63
2022-12-08T04:34:04.422Z,4.90
2022-12-08T04:36:30.858Z,4.63
2022-12-08T04:38:57.841Z,5.22
2022-12-08T04:41:24.340Z,4.32
2022-12-08T04:43:50.783Z,4.45
2022-12-08T04:46:17.255Z,4.47
2022-12-08T04:48:43.833Z,4.68
2022-12-08T04:51:20.553Z,4.53
2022-12-08T04:53:47.802Z,4.70
2022-12-08T04:56:16.275Z,4.22
2022-12-08T04:58:43.236Z,4.10
2022-12-08T05:01:10.253Z,4.45
2022-12-08T05:03:37.005Z,3.40
2022-12-08T05:06:03.667Z,4.28
2022-12-08T05:08:30.441Z,4.32
2022-12-08T05:11:08.230Z,4.03
2022-12-08T05:13:34.902Z,3.92
2022-12-08T05:16:06.235Z,4.10
2022-12-08T05:18:32.838Z,3.92
2022-12-08T05:20:59.334Z,3.75
2022-12-08T05:23:26.803Z,4.22
2022-12-08T05:25:53.432Z,4.20
2022-12-08T05:28:40.633Z,3.67
2022-12-08T05:31:06.602Z,4.30
2022-12-08T05:33:33.116Z,3.97
2022-12-08T05:35:59.521Z,4.07
2022-12-08T05:38:26.062Z,3.80
2022-12-08T05:40:52.524Z,3.40
2022-12-08T05:43:19.065Z,4.07
2022-12-08T05:45:45.609Z,3.72
2022-12-08T05:48:12.149Z,4.65
2022-12-08T05:50:38.631Z,4.20
2022-12-08T05:53:05.111Z,3.33
2022-12-08T05:55:31.580Z,2.78
2022-12-08T05:58:00.797Z,3.58
2022-12-08T06:00:29.678Z,3.40
2022-12-08T06:02:56.158Z,3.10
2022-12-08T06:05:22.673Z,3.25
2022-12-08T06:07:49.130Z,2.78
2022-12-08T06:10:15.681Z,2.75
2022-12-08T06:12:42.150Z,3.05
2022-12-08T06:15:08.921Z,2.92
2022-12-08T06:17:35.460Z,2.88
2022-12-08T06:20:02.285Z,2.88
2022-12-08T06:22:29.185Z,4.15
2022-12-08T06:24:55.781Z,3.58
2022-12-08T06:27:22.272Z,2.72
2022-12-08T06:29:48.710Z,2.53
2022-12-08T06:32:15.471Z,3.55
2022-12-08T06:34:42.025Z,2.55
2022-12-08T06:37:08.482Z,2.78
2022-12-08T06:39:35.032Z,3.47
2022-12-08T06:42:20.096Z,2.20
2022-12-08T06:44:47.059Z,2.70
2022-12-08T06:47:13.828Z,4.93
2022-12-08T06:49:40.360Z,4.82
2022-12-08T06:52:06.843Z,6.05
2022-12-08T06:54:33.335Z,8.70
2022-12-08T06:56:59.910Z,6.90
2022-12-08T06:59:29.229Z,6.75
2022-12-08T07:01:55.781Z,5.88
2022-12-08T07:04:22.214Z,6.05
2022-12-08T07:06:48.677Z,5.45
2022-12-08T07:09:15.230Z,5.00
2022-12-08T07:11:41.696Z,6.53
2022-12-08T07:14:08.217Z,5.28
2022-12-08T07:16:34.740Z,7.20
2022-12-08T07:19:01.218Z,6.38
2022-12-08T07:21:27.776Z,3.78
2022-12-08T07:23:57.662Z,7.80
2022-12-08T07:26:25.006Z,5.38
2022-12-08T07:28:51.395Z,5.38
2022-12-08T07:31:21.458Z,7.38
2022-12-08T07:33:48.375Z,5.15
2022-12-08T07:36:14.826Z,6.00
2022-12-08T07:38:41.845Z,3.53
2022-12-08T07:41:18.361Z,4.78
2022-12-08T07:43:45.163Z,5.30
2022-12-08T07:46:13.283Z,3.92
2022-12-08T07:48:40.092Z,4.28
2022-12-08T07:51:06.770Z,3.90
2022-12-08T07:53:33.474Z,4.93
2022-12-08T07:56:00.275Z,6.65
2022-12-08T07:58:27.696Z,3.92
2022-12-08T08:00:54.274Z,4.10
2022-12-08T08:03:22.014Z,4.32
2022-12-08T08:05:50.051Z,3.92
2022-12-08T08:08:17.366Z,5.13
2022-12-08T08:10:44.970Z,5.63
2022-12-08T08:13:11.429Z,7.40
2022-12-08T08:15:38.051Z,4.97
2022-12-08T08:18:04.709Z,5.80
2022-12-08T08:20:31.146Z,10.40
2022-12-08T08:22:57.617Z,6.05
2022-12-08T08:25:24.117Z,5.65
2022-12-08T08:27:50.737Z,13.25
2022-12-08T08:30:20.710Z,33.97
2022-12-08T08:32:48.561Z,59.28
2022-12-08T08:35:15.393Z,26.73
2022-12-08T08:37:45.787Z,60.53
2022-12-08T08:40:15.578Z,64.03
2022-12-08T08:42:42.093Z,79.22
2022-12-08T08:45:08.840Z,74.13
2022-12-08T08:47:35.316Z,124.82
2022-12-08T08:50:02.285Z,93.22
2022-12-08T08:52:29.213Z,131.43
2022-12-08T08:54:55.652Z,155.98
2022-12-08T08:57:25.562Z,98.90
2022-12-08T08:59:52.931Z,162.32
2022-12-08T09:02:20.373Z,113.78
2022-12-08T09:04:47.437Z,137.00
2022-12-08T09:07:14.544Z,120.75
2022-12-08T09:09:41.153Z,155.38
2022-12-08T09:12:08.111Z,146.45
2022-12-08T09:14:34.760Z,154.82
2022-12-08T09:17:01.319Z,185.75
2022-12-08T09:19:27.861Z,155.07
2022-12-08T09:21:54.389Z,194.05
2022-12-08T09:24:20.865Z,194.05
2022-12-08T09:26:47.332Z,164.13
2022-12-08T09:29:14.692Z,169.23
2022-12-08T09:31:41.997Z,195.13
2022-12-08T09:34:11.706Z,202.55
2022-12-08T09:36:39.841Z,189.20
2022-12-08T09:39:08.845Z,191.30
2022-12-08T09:41:44.864Z,240.05
2022-12-08T09:44:34.389Z,231.75
2022-12-08T09:47:06.476Z,241.95
2022-12-08T09:49:40.934Z,278.75
2022-12-08T09:52:24.370Z,298.80
2022-12-08T09:54:53.446Z,301.67
2022-12-08T09:57:23.865Z,299.45
2022-12-08T10:00:00.147Z,292.48
2022-12-08T10:02:30.309Z,293.38
2022-12-08T10:05:00.988Z,309.65
2022-12-08T10:07:32.006Z,299.50
2022-12-08T10:10:13.995Z,304.95
2022-12-08T10:12:49.343Z,287.75
2022-12-08T10:15:39.877Z,295.10
2022-12-08T10:18:17.179Z,309.27
2022-12-08T10:20:48.043Z,341.67
2022-12-08T10:23:30.625Z,320.30
2022-12-08T10:26:19.176Z,289.05
2022-12-08T10:28:46.016Z,272.42
2022-12-08T10:31:32.785Z,261.05
2022-12-08T10:34:01.987Z,254.82
2022-12-08T10:36:52.038Z,236.57
2022-12-08T10:39:32.904Z,229.02
2022-12-08T10:42:22.964Z,225.38
2022-12-08T10:44:53.411Z,205.68
2022-12-08T10:47:25.422Z,199.55
2022-12-08T10:50:22.230Z,190.87
2022-12-08T10:52:58.966Z,188.82
2022-12-08T10:55:25.770Z,186.40
2022-12-08T10:57:52.268Z,181.88
2022-12-08T11:00:29.402Z,176.77
2022-12-08T11:03:02.333Z,181.00
2022-12-08T11:08:00.092Z,169.07
2022-12-08T11:10:42.643Z,164.73
2022-12-08T11:13:30.393Z,160.43
2022-12-08T11:15:58.025Z,163.18
2022-12-08T11:18:28.090Z,149.15
2022-12-08T11:21:08.039Z,146.68
2022-12-08T11:23:36.865Z,147.50
2022-12-08T11:26:13.057Z,145.52
2022-12-08T11:28:40.016Z,147.57
2022-12-08T11:31:37.031Z,140.98
2022-12-08T11:34:06.786Z,141.65
2022-12-08T11:36:37.008Z,138.13
2022-12-08T11:39:06.233Z,139.13
2022-12-08T11:41:41.418Z,133.75
2022-12-08T11:44:22.378Z,132.68
2022-12-08T11:46:57.517Z,128.55
2022-12-08T11:49:35.427Z,125.75
2022-12-08T11:52:12.587Z,124.13
2022-12-08T11:54:45.161Z,120.18
2022-12-08T11:57:16.568Z,125.00
2022-12-08T11:59:46.311Z,119.57
2022-12-08T12:02:26.193Z,119.05
2022-12-08T12:04:58.522Z,115.80
2022-12-08T12:07:50.069Z,112.78
2022-12-08T12:10:36.609Z,111.72
2022-12-08T12:13:08.836Z,110.78
2022-12-08T12:16:26.593Z,106.53
2022-12-08T12:19:03.128Z,101.85
2022-12-08T12:21:36.966Z,102.00
2022-12-08T12:24:23.793Z,102.82
2022-12-08T12:27:00.149Z,98.20
2022-12-08T12:29:31.019Z,97.78
2022-12-08T12:32:02.494Z,98.38
2022-12-08T12:34:36.466Z,95.90
2022-12-08T12:37:12.161Z,94.90
2022-12-08T12:39:58.326Z,91.85
2022-12-08T12:42:44.574Z,91.97
2022-12-08T12:45:16.949Z,87.32
2022-12-08T12:47:56.833Z,87.28
2022-12-08T12:50:48.733Z,84.57
2022-12-08T12:53:38.199Z,84.28
2022-12-08T12:56:05.532Z,81.18
2022-12-08T12:58:31.936Z,79.93
2022-12-08T13:01:11.096Z,79.55
2022-12-08T13:03:38.533Z,78.32
2022-12-08T13:06:08.776Z,76.97
2022-12-08T13:11:11.497Z,73.15
2022-12-08T13:13:38.867Z,69.13
2022-12-08T13:16:19.175Z,68.75
2022-12-08T13:18:52.138Z,69.57
2022-12-08T13:21:23.540Z,66.93
2022-12-08T13:24:08.619Z,65.85
2022-12-08T13:26:44.357Z,67.88
2022-12-08T13:29:26.678Z,66.25
2022-12-08T13:31:57.859Z,66.32
2022-12-08T13:34:51.466Z,62.72
2022-12-08T13:37:28.208Z,65.72
2022-12-08T13:40:08.501Z,59.22
2022-12-08T13:42:47.284Z,61.55
2022-12-08T13:45:33.554Z,59.22
2022-12-08T13:48:41.640Z,56.92
2022-12-08T13:57:13.891Z,59.97
2022-12-08T13:59:45.165Z,62.13
2022-12-08T14:02:20.472Z,58.33
2022-12-08T14:05:17.583Z,65.53
2022-12-08T14:07:35.378Z,54.13
2022-12-08T14:10:03.715Z,56.08
2022-12-08T14:12:31.734Z,55.75
2022-12-08T14:15:03.878Z,55.22
2022-12-08T14:17:30.996Z,53.85
2022-12-08T14:20:00.415Z,56.20
2022-12-08T14:22:38.327Z,55.33
2022-12-08T14:25:07.526Z,53.78
2022-12-08T14:27:36.371Z,62.58
2022-12-08T14:30:07.717Z,58.70
2022-12-08T14:32:54.657Z,56.05
2022-12-08T14:35:32.765Z,56.70
2022-12-08T14:38:01.568Z,55.35
2022-12-08T14:40:33.958Z,53.13
2022-12-08T14:43:09.198Z,58.03
2022-12-08T14:45:41.611Z,57.08
2022-12-08T14:48:25.661Z,58.00
2022-12-08T14:51:04.176Z,55.95
2022-12-08T14:53:59.062Z,57.65
2022-12-08T14:56:37.075Z,55.70
2022-12-08T14:59:22.788Z,52.53
2022-12-08T15:01:52.034Z,51.38
2022-12-08T15:04:23.585Z,51.47
2022-12-08T15:06:54.314Z,53.00
2022-12-08T15:09:40.972Z,48.13
2022-12-08T15:12:13.279Z,45.72
2022-12-08T15:14:57.856Z,48.70
2022-12-08T15:17:35.961Z,48.00
2022-12-08T15:20:04.878Z,40.75
2022-12-08T15:22:31.747Z,39.42
2022-12-08T15:24:58.566Z,44.70
2022-12-08T15:27:25.780Z,43.40
2022-12-08T15:29:52.985Z,40.63
2022-12-08T15:32:22.918Z,38.05
2022-12-08T15:34:50.082Z,39.60
2022-12-08T15:37:22.092Z,37.10
2022-12-08T15:39:49.197Z,39.03
2022-12-08T15:42:16.190Z,38.40
2022-12-08T15:44:43.168Z,33.75
2022-12-08T15:47:19.109Z,32.92
2022-12-08T15:49:46.650Z,35.85
2022-12-08T15:52:15.559Z,29.48
2022-12-08T15:54:42.008Z,33.97
2022-12-08T15:57:30.015Z,33.70
2022-12-08T16:00:15.394Z,32.65
2022-12-08T16:03:22.680Z,27.60
2022-12-08T16:05:49.996Z,28.48
2022-12-08T16:08:46.200Z,32.10
2022-12-08T16:12:04.880Z,27.92
2022-12-08T16:15:23.422Z,31.27
2022-12-08T16:17:14.419Z,29.77
2022-12-08T16:19:41.496Z,30.08
2022-12-08T16:22:52.414Z,29.65
2022-12-08T16:25:21.792Z,29.65
2022-12-08T16:30:43.004Z,27.30
2022-12-08T16:33:12.079Z,25.92
2022-12-08T16:35:39.191Z,25.55
2022-12-08T16:38:05.982Z,25.23
2022-12-08T16:40:32.886Z,25.75
2022-12-08T16:42:59.580Z,24.92
2022-12-08T16:45:30.285Z,23.70
2022-12-08T16:48:01.258Z,23.70
2022-12-08T16:50:30.325Z,24.15
2022-12-08T16:53:06.177Z,21.90
2022-12-08T16:55:34.472Z,21.58
2022-12-08T16:58:02.532Z,22.67
2022-12-08T17:00:31.206Z,20.10
2022-12-08T17:02:58.900Z,23.50
2022-12-08T17:05:26.837Z,19.30
2022-12-08T17:07:54.275Z,17.52
2022-12-08T17:10:23.289Z,20.60
2022-12-08T17:12:50.897Z,19.17
2022-12-08T17:15:20.455Z,18.35
2022-12-08T17:17:47.473Z,20.20
2022-12-08T17:20:22.447Z,16.05
2022-12-08T17:22:48.960Z,19.23
2022-12-08T17:25:15.987Z,16.52
2022-12-08T17:27:42.765Z,19.95
2022-12-08T17:30:11.755Z,17.13
2022-12-08T17:32:38.854Z,16.08
2022-12-08T17:35:06.412Z,15.73
2022-12-08T17:37:33.457Z,16.05
2022-12-08T17:39:59.992Z,17.27
2022-12-08T17:42:27.207Z,15.82
2022-12-08T17:44:54.632Z,16.42
2022-12-08T17:47:21.796Z,15.18
2022-12-08T17:49:48.583Z,15.73
2022-12-08T17:52:15.012Z,15.93
2022-12-08T17:54:41.462Z,14.80
2022-12-08T17:57:08.006Z,14.77
2022-12-08T17:59:34.531Z,13.70
2022-12-08T18:02:01.349Z,13.45
2022-12-08T18:04:28.544Z,13.15
2022-12-08T18:06:55.122Z,12.70
2022-12-08T18:09:21.936Z,15.20
2022-12-08T18:11:48.627Z,13.27
2022-12-08T18:14:15.856Z,13.27
2022-12-08T18:16:46.498Z,13.35
2022-12-08T18:19:14.175Z,11.52
2022-12-08T18:21:41.323Z,13.95
2022-12-08T18:24:09.068Z,13.52
2022-12-08T18:26:35.856Z,10.55
2022-12-08T18:29:02.339Z,12.90
2022-12-08T18:31:28.969Z,11.13
2022-12-08T18:33:55.513Z,10.70
2022-12-08T18:36:24.352Z,10.52
2022-12-08T18:38:52.368Z,9.43
2022-12-08T18:41:23.407Z,10.80
2022-12-08T18:43:50.331Z,10.00
2022-12-08T18:46:16.935Z,10.80
2022-12-08T18:48:48.574Z,10.73
2022-12-08T18:51:18.110Z,9.30
2022-12-08T18:53:45.788Z,11.45
2022-12-08T18:56:27.368Z,9.15
2022-12-08T18:59:02.907Z,10.32
2022-12-08T19:01:35.537Z,11.15
2022-12-08T19:04:27.203Z,10.57
2022-12-08T19:06:52.565Z,9.13
2022-12-08T19:09:19.887Z,9.73
2022-12-08T19:11:46.373Z,9.82
2022-12-08T19:14:12.876Z,8.20
2022-12-08T19:16:39.365Z,10.70
2022-12-08T19:19:05.834Z,8.52
2022-12-08T19:21:32.829Z,8.45
2022-12-08T19:23:59.882Z,7.93
2022-12-08T19:26:28.108Z,7.70
2022-12-08T19:28:54.617Z,9.15
2022-12-08T19:31:21.205Z,8.65
2022-12-08T19:33:47.757Z,9.02
2022-12-08T19:36:16.768Z,9.13
2022-12-08T19:39:01.601Z,7.20
2022-12-08T19:41:46.827Z,7.45
2022-12-08T19:44:41.942Z,7.15
2022-12-08T19:47:08.764Z,7.55
2022-12-08T19:49:35.357Z,8.10
2022-12-08T19:52:01.971Z,8.30
2022-12-08T19:54:28.627Z,7.45
2022-12-08T19:56:55.392Z,7.50
2022-12-08T19:59:26.089Z,6.38
2022-12-08T20:01:56.565Z,7.80
2022-12-08T20:04:24.843Z,6.35
2022-12-08T20:06:53.284Z,7.13
2022-12-08T20:09:20.542Z,6.78
2022-12-08T20:11:47.101Z,7.65
2022-12-08T20:14:13.775Z,6.45
2022-12-08T20:16:41.664Z,7.72
2022-12-08T20:19:09.043Z,6.05
2022-12-08T20:21:35.527Z,5.95
2022-12-08T20:24:02.038Z,6.07
2022-12-08T20:26:28.540Z,7.82
2022-12-08T20:28:55.055Z,6.50
2022-12-08T20:31:24.568Z,5.78
2022-12-08T20:33:51.962Z,6.53
2022-12-08T20:36:20.230Z,6.47
2022-12-08T20:38:47.988Z,6.50
2022-12-08T20:41:18.249Z,5.63
2022-12-08T20:43:46.821Z,6.15
2022-12-08T20:46:15.686Z,5.68
2022-12-08T20:48:43.579Z,5.45
2022-12-08T20:51:13.957Z,6.75
2022-12-08T20:53:40.540Z,6.88
2022-12-08T20:56:07.768Z,5.82
2022-12-08T20:58:34.461Z,5.43
2022-12-08T21:01:01.220Z,4.70
2022-12-08T21:03:27.986Z,5.20
2022-12-08T21:05:57.691Z,4.78
2022-12-08T21:08:25.957Z,5.88
2022-12-08T21:10:55.034Z,4.80
2022-12-08T21:13:21.608Z,6.88
2022-12-08T21:15:48.293Z,4.57
2022-12-08T21:18:16.566Z,5.20
2022-12-08T21:20:44.069Z,4.75
2022-12-08T21:23:11.369Z,4.05
2022-12-08T21:25:46.074Z,5.75
2022-12-08T21:28:13.275Z,4.82
2022-12-08T21:30:40.578Z,5.13
2022-12-08T21:33:07.372Z,3.65
2022-12-08T21:35:36.962Z,4.47
2022-12-08T21:38:06.518Z,5.45
2022-12-08T21:40:35.230Z,4.65
2022-12-08T21:43:03.806Z,3.90
2022-12-08T21:45:33.568Z,4.80
2022-12-08T21:48:03.283Z,4.20
2022-12-08T21:50:33.914Z,4.50
2022-12-08T21:53:00.814Z,3.95
2022-12-08T21:55:27.714Z,4.30
2022-12-08T21:57:55.869Z,4.28
2022-12-08T22:00:23.041Z,3.92
2022-12-08T22:02:49.997Z,4.35
2022-12-08T22:05:16.750Z,4.38
2022-12-08T22:07:43.675Z,4.68
2022-12-08T22:10:11.564Z,3.80
2022-12-08T22:12:38.493Z,4.55
2022-12-08T22:15:09.397Z,4.07
2022-12-08T22:17:38.142Z,3.55
2022-12-08T22:20:06.987Z,3.40
2022-12-08T22:22:35.053Z,3.45
2022-12-08T22:25:06.024Z,3.40
2022-12-08T22:27:35.827Z,3.58
2022-12-08T22:30:03.188Z,3.88
2022-12-08T22:32:30.309Z,3.65
2022-12-08T22:34:56.894Z,3.30
2022-12-08T22:37:23.711Z,3.70
2022-12-08T22:39:53.245Z,4.00
2022-12-08T22:42:19.784Z,3.53
2022-12-08T22:44:46.311Z,3.25
2022-12-08T22:47:12.921Z,3.85
2022-12-08T22:49:39.523Z,3.90
2022-12-08T22:52:06.174Z,4.05
2022-12-08T22:54:32.706Z,3.75
2022-12-08T22:56:59.315Z,3.50
2022-12-08T22:59:25.926Z,2.97
2022-12-08T23:01:54.006Z,3.03
2022-12-08T23:04:20.668Z,3.58
2022-12-08T23:06:47.314Z,4.07
2022-12-08T23:09:14.013Z,3.60
2022-12-08T23:11:40.683Z,3.13
2022-12-08T23:14:07.413Z,3.53
2022-12-08T23:16:34.154Z,3.13
2022-12-08T23:19:00.953Z,3.88
2022-12-08T23:21:27.654Z,3.22
2022-12-08T23:23:54.208Z,3.35
2022-12-08T23:26:23.362Z,3.72
2022-12-08T23:28:50.130Z,2.78
2022-12-08T23:31:16.916Z,3.15
2022-12-08T23:33:44.268Z,3.47
2022-12-08T23:36:11.967Z,3.10
2022-12-08T23:38:38.959Z,2.90
2022-12-08T23:41:07.752Z,2.65
2022-12-08T23:43:34.842Z,3.53
2022-12-08T23:46:01.436Z,4.22
2022-12-08T23:48:28.822Z,3.17
2022-12-08T23:50:56.998Z,3.05
2022-12-08T23:53:23.928Z,3.45
2022-12-08T23:55:50.625Z,3.20
2022-12-08T23:58:17.158Z,3.00
